Time;durP1;ratioP1;P1;durP2;ratioP2;P2;SDS_P1;SDS_P2;PMS_P1;PMS_P2;Temp;Humidity;BMP_temperature;BMP_pressure;BME280_temperature;BME280_humidity;BME280_pressure;Samples;Min_cycle;Max_cycle;Signal;HPM_P1;HPM_P2
2024/01/13 08:07:19;;;;;;;18.10;10.52;;;;;;;3.29;59.93;101491.41;5021238;27;2200103;-79
2024/01/13 08:10:19;;;;;;;26.08;11.15;;;;;;;3.04;59.55;101494.56;5113622;28;20036;-78
2024/01/13 08:13:14;;;;;;;22.38;9.95;;;;;;;2.83;61.15;101492.59;5110942;28;20047;-79
2024/01/13 08:16:09;;;;;;;13.90;8.27;;;;;;;2.63;61.69;101497.66;5088747;28;20063;-81
2024/01/13 08:19:06;;;;;;;16.23;8.88;;;;;;;2.63;61.65;101493.09;5091834;28;20048;-78
2024/01/13 08:21:58;;;;;;;17.33;9.45;;;;;;;2.69;62.83;101499.38;5089552;28;20417;-79
2024/01/13 08:24:50;;;;;;;22.10;9.73;;;;;;;2.82;62.32;101496.34;5091080;28;20059;-78
2024/01/13 08:27:44;;;;;;;19.25;10.27;;;;;;;2.80;63.23;101493.88;5090504;28;20055;-79
2024/01/13 08:30:39;;;;;;;45.83;13.48;;;;;;;3.07;62.68;101490.53;5088386;28;20047;-78
2024/01/13 08:33:34;;;;;;;24.00;10.40;;;;;;;2.90;63.58;101493.22;5088876;28;20099;-79
2024/01/13 08:36:26;;;;;;;13.27;6.35;;;;;;;3.09;63.01;101497.31;5079645;28;20039;-79
2024/01/13 08:39:18;;;;;;;21.10;11.10;;;;;;;2.80;63.51;101495.75;5085320;28;20417;-79
2024/01/13 08:42:13;;;;;;;20.05;9.13;;;;;;;3.08;63.58;101506.44;5073745;28;20047;-79
2024/01/13 08:45:07;;;;;;;16.90;8.98;;;;;;;2.97;63.75;101500.09;5077910;28;20048;-79
2024/01/13 08:48:00;;;;;;;15.57;9.13;;;;;;;3.08;63.93;101484.94;5085829;28;20067;-79
2024/01/13 08:50:54;;;;;;;16.88;9.93;;;;;;;2.98;64.22;101492.84;5078045;28;20055;-79
2024/01/13 08:53:49;;;;;;;16.70;9.00;;;;;;;3.30;64.68;101488.47;5082109;28;20115;-79
2024/01/13 08:56:43;;;;;;;17.90;10.13;;;;;;;3.52;64.07;101479.59;5080468;28;20040;-78
2024/01/13 08:59:38;;;;;;;12.33;7.07;;;;;;;3.08;65.10;101490.31;5077844;28;20059;-78
2024/01/13 09:02:31;;;;;;;;;;;;;;;3.61;64.43;101484.28;5082729;28;20052;-78
2024/01/13 09:05:26;;;;;;;18.20;8.90;;;;;;;3.68;65.27;101490.31;5078753;28;19921;-78
2024/01/13 09:08:21;;;;;;;8.63;5.80;;;;;;;3.78;65.30;101486.94;5085680;28;20047;-77
2024/01/13 09:11:15;;;;;;;18.58;9.40;;;;;;;3.57;65.82;101482.34;5074783;28;20063;-79
2024/01/13 09:14:07;;;;;;;12.13;6.85;;;;;;;3.36;67.39;101495.53;5078708;28;20170;-79
2024/01/13 09:17:00;;;;;;;24.00;10.40;;;;;;;2.92;68.12;101496.50;5076398;28;20039;-79
2024/01/13 09:19:54;;;;;;;16.20;8.85;;;;;;;3.29;67.64;101497.59;5063553;28;20515;-79
2024/01/13 09:22:44;;;;;;;16.05;8.80;;;;;;;4.39;63.48;101479.50;5066180;28;20036;-79
2024/01/13 09:25:38;;;;;;;20.00;9.27;;;;;;;3.92;66.88;101482.78;5064995;28;20049;-78
2024/01/13 09:28:33;;;;;;;14.15;6.93;;;;;;;4.39;64.58;101479.50;5064250;28;20036;-78
2024/01/13 09:31:25;;;;;;;22.88;10.82;;;;;;;4.20;67.22;101487.13;5069586;28;20047;-78
2024/01/13 09:34:20;;;;;;;23.15;9.98;;;;;;;4.38;65.71;101484.06;5074904;28;20409;-80
2024/01/13 09:37:14;;;;;;;20.15;11.63;;;;;;;4.64;65.48;101487.81;5063966;28;20048;-80
2024/01/13 09:40:10;;;;;;;21.42;11.43;;;;;;;5.23;62.73;101482.31;5062058;28;20040;-81
2024/01/13 09:43:09;;;;;;;;;;;;;;;4.91;62.56;101485.06;5066093;28;20068;-79
2024/01/13 09:46:01;;;;;;;14.57;9.43;;;;;;;4.90;62.65;101481.56;5059271;28;20290;-80
2024/01/13 09:48:58;;;;;;;18.95;8.75;;;;;;;5.38;60.92;101488.63;5057913;28;20063;-77
2024/01/13 09:51:53;;;;;;;19.48;11.15;;;;;;;6.03;55.54;101476.50;5068898;28;20043;-77
2024/01/13 09:54:49;;;;;;;24.60;9.52;;;;;;;6.09;54.63;101477.31;5064485;28;20048;-76
2024/01/13 09:57:43;;;;;;;18.45;10.63;;;;;;;6.09;54.36;101474.63;5069102;28;20540;-78
2024/01/13 10:00:40;;;;;;;226.93;130.50;;;;;;;6.15;54.51;101474.34;5067146;28;20047;-79
2024/01/13 10:03:34;;;;;;;20.77;11.18;;;;;;;6.47;54.91;101478.72;5056167;28;20041;-79
2024/01/13 10:06:29;;;;;;;14.25;7.90;;;;;;;6.76;56.01;101471.69;5053758;28;20052;-78
2024/01/13 10:09:21;;;;;;;11.15;7.15;;;;;;;6.97;56.23;101461.66;5060838;28;20056;-78
2024/01/13 10:12:11;;;;;;;87.03;35.95;;;;;;;7.27;56.75;101456.19;5055615;28;20052;-78
2024/01/13 10:15:13;;;;;;;23.60;11.27;;;;;;;8.05;56.56;101451.00;5058936;28;20044;-79
2024/01/13 10:18:05;;;;;;;36.40;14.50;;;;;;;8.39;55.91;101451.88;5071406;28;20047;-79
2024/01/13 10:21:01;;;;;;;26.52;11.82;;;;;;;9.05;56.77;101443.16;5069118;28;20047;-77
2024/01/13 10:23:59;;;;;;;20.42;10.52;;;;;;;9.42;53.38;101435.16;5064636;28;20039;-79
2024/01/13 10:26:53;;;;;;;20.08;10.82;;;;;;;9.76;54.44;101424.13;5054826;28;20044;-79
2024/01/13 10:29:50;;;;;;;15.88;8.82;;;;;;;10.08;51.49;101420.69;5059398;28;20685;-79
2024/01/13 10:32:45;;;;;;;17.48;9.93;;;;;;;10.40;51.92;101424.59;5057647;28;20413;-77
2024/01/13 10:35:37;;;;;;;10.60;6.50;;;;;;;10.74;51.00;101416.94;5058865;28;20072;-79
2024/01/13 10:38:26;;;;;;;16.38;6.43;;;;;;;11.47;49.66;101410.66;5059964;28;20037;-78
2024/01/13 10:41:21;;;;;;;11.10;5.85;;;;;;;11.90;45.91;101409.19;5057517;28;20532;-78
2024/01/13 10:44:15;;;;;;;;;;;;;;;11.94;46.59;101402.00;5059228;28;20059;-79
2024/01/13 10:47:14;;;;;;;9.63;4.63;;;;;;;12.14;46.01;101400.72;5055915;28;19920;-79
2024/01/13 10:50:10;;;;;;;8.88;5.47;;;;;;;12.54;44.22;101396.22;5054434;28;20414;-78
2024/01/13 10:53:14;;;;;;;8.35;5.15;;;;;;;12.53;43.00;101396.53;5056926;28;20056;-78
2024/01/13 10:56:07;;;;;;;10.27;5.40;;;;;;;12.87;42.52;101391.25;5067962;28;20035;-79
2024/01/13 10:59:01;;;;;;;9.23;4.93;;;;;;;13.13;42.15;101386.75;5070983;28;20535;-77
2024/01/13 11:01:56;;;;;;;138.43;22.70;;;;;;;13.53;43.22;101379.28;5055231;28;20044;-77
2024/01/13 11:04:49;;;;;;;16.92;8.05;;;;;;;24.45;23.09;101397.75;5051313;28;20406;-80
2024/01/13 11:07:44;;;;;;;31.40;7.05;;;;;;;27.79;18.55;101395.28;5062305;28;20044;-82
2024/01/13 11:10:40;;;;;;;9.07;5.07;;;;;;;29.13;16.06;101391.84;5055609;28;20047;-81
2024/01/13 11:13:45;;;;;;;11.23;5.20;;;;;;;30.80;15.01;101378.06;5057589;28;20548;-80
2024/01/13 11:16:42;;;;;;;11.88;4.80;;;;;;;30.81;14.61;101386.06;5054049;28;20056;-80
2024/01/13 11:19:40;;;;;;;10.85;5.07;;;;;;;30.44;14.31;101378.88;5065320;28;20059;-81
2024/01/13 11:22:39;;;;;;;7.63;5.32;;;;;;;31.62;13.41;101379.59;5063089;28;20064;-81
2024/01/13 11:25:37;;;;;;;7.03;4.93;;;;;;;31.75;12.92;101375.59;5062930;28;20048;-80
2024/01/13 11:28:48;;;;;;;11.05;6.82;;;;;;;30.51;14.05;101364.72;5056768;28;20051;-81
2024/01/13 11:31:42;;;;;;;10.00;5.90;;;;;;;30.91;13.10;101359.72;5044498;28;20083;-79
2024/01/13 11:34:37;;;;;;;7.97;5.97;;;;;;;31.31;12.89;101365.16;5061786;28;20418;-79
2024/01/13 11:37:27;;;;;;;8.65;5.85;;;;;;;30.63;13.81;101354.03;5053463;28;20048;-79
2024/01/13 11:40:20;;;;;;;8.35;6.00;;;;;;;30.54;13.44;101355.41;5052138;28;20059;-79
2024/01/13 11:43:26;;;;;;;11.60;7.25;;;;;;;31.30;13.17;101341.88;5057567;28;20044;-80
2024/01/13 11:46:20;;;;;;;9.00;4.63;;;;;;;31.57;12.55;101346.41;5051633;28;20052;-80
2024/01/13 11:49:15;;;;;;;12.55;7.03;;;;;;;32.38;11.78;101346.81;5061470;28;20056;-79
2024/01/13 11:52:15;;;;;;;8.88;6.38;;;;;;;34.35;10.68;101340.25;5061691;28;20064;-80
2024/01/13 11:55:07;;;;;;;18.58;9.07;;;;;;;31.75;12.52;101330.59;5059046;28;20044;-79
2024/01/13 11:58:06;;;;;;;17.08;8.18;;;;;;;31.92;12.47;101320.03;5053911;28;20048;-79
2024/01/13 12:01:01;;;;;;;16.60;9.70;;;;;;;32.58;12.38;101324.81;5054985;28;20040;-78
2024/01/13 12:03:53;;;;;;;17.42;8.73;;;;;;;31.85;12.57;101323.06;5068363;28;20055;-78
2024/01/13 12:06:45;;;;;;;12.60;8.95;;;;;;;32.97;11.81;101320.72;5063673;28;20544;-78
2024/01/13 12:09:40;;;;;;;15.55;9.05;;;;;;;31.50;12.86;101312.81;5061472;28;20052;-78
2024/01/13 12:12:35;;;;;;;14.13;8.82;;;;;;;31.59;12.83;101301.75;5053944;28;20044;-77
2024/01/13 12:15:29;;;;;;;14.02;9.80;;;;;;;32.29;12.40;101303.66;5057889;28;20051;-79
2024/01/13 12:18:30;;;;;;;14.27;9.50;;;;;;;33.09;11.43;101294.53;5066895;28;20044;-78
2024/01/13 12:21:25;;;;;;;14.00;9.40;;;;;;;31.43;12.84;101288.50;5052143;28;20043;-80
2024/01/13 12:24:17;;;;;;;11.32;7.85;;;;;;;32.73;12.15;101285.72;5067579;28;20063;-79
2024/01/13 12:27:15;;;;;;;14.60;8.40;;;;;;;33.11;11.66;101277.16;5053407;28;20044;-78
2024/01/13 12:30:05;;;;;;;11.85;8.60;;;;;;;32.65;11.36;101271.13;5051390;28;20509;-79
2024/01/13 12:32:59;;;;;;;11.77;8.18;;;;;;;30.85;12.75;101265.19;5054737;28;20048;-78
2024/01/13 12:35:59;;;;;;;13.50;9.02;;;;;;;31.12;12.67;101265.69;5051104;28;20516;-78
2024/01/13 12:38:58;;;;;;;14.85;9.27;;;;;;;29.36;14.05;101257.34;5059010;28;20047;-77
2024/01/13 12:41:53;;;;;;;16.23;10.48;;;;;;;30.02;13.69;101253.59;5066949;28;20532;-78
2024/01/13 12:44:50;;;;;;;16.00;9.50;;;;;;;28.32;15.15;101251.19;5062368;28;20044;-79
2024/01/13 12:47:44;;;;;;;14.40;9.60;;;;;;;30.72;13.13;101250.28;5054326;28;20044;-80
2024/01/13 12:50:42;;;;;;;17.02;10.18;;;;;;;30.51;13.50;101241.19;5056328;28;20047;-78
2024/01/13 12:53:38;;;;;;;16.10;10.77;;;;;;;30.82;13.53;101238.00;5069199;28;20039;-79
2024/01/13 12:56:33;;;;;;;14.27;9.95;;;;;;;30.59;13.49;101231.34;5056786;28;20044;-78
2024/01/13 12:59:27;;;;;;;14.40;9.93;;;;;;;30.02;13.61;101217.88;5055825;28;20047;-77
2024/01/13 13:02:22;;;;;;;16.73;11.07;;;;;;;31.68;13.29;101217.50;5064408;28;20454;-79
2024/01/13 13:05:17;;;;;;;14.48;9.93;;;;;;;29.12;14.46;101208.19;5043196;28;20489;-80
2024/01/13 13:08:11;;;;;;;28.70;13.43;;;;;;;30.97;13.44;101213.91;5066695;28;20067;-78
2024/01/13 13:11:14;;;;;;;15.70;10.25;;;;;;;30.52;13.82;101206.28;5063203;28;20047;-79
2024/01/13 13:14:06;;;;;;;20.30;12.23;;;;;;;30.67;13.69;101203.88;5060901;28;20052;-77
2024/01/13 13:17:00;;;;;;;20.23;12.73;;;;;;;31.06;13.18;101210.47;5070646;28;20033;-79
2024/01/13 13:19:58;;;;;;;24.75;14.90;;;;;;;29.68;13.43;101215.44;5063386;28;20045;-78
2024/01/13 13:22:50;;;;;;;21.67;15.00;;;;;;;29.19;14.31;101210.84;5069931;28;20040;-78
2024/01/13 13:25:45;;;;;;;35.17;19.20;;;;;;;28.01;15.12;101209.28;5064998;28;20040;-78
2024/01/13 13:28:39;;;;;;;68.25;35.67;;;;;;;29.53;14.42;101200.16;5058374;28;20041;-78
2024/01/13 13:31:32;;;;;;;33.97;20.50;;;;;;;29.95;14.17;101200.44;5062451;28;20045;-80
2024/01/13 13:34:24;;;;;;;36.20;21.40;;;;;;;29.55;14.39;101202.53;5054759;28;20052;-78
2024/01/13 13:37:18;;;;;;;15.38;10.68;;;;;;;29.48;14.35;101199.88;5058421;28;20045;-80
2024/01/13 13:40:13;;;;;;;13.45;7.93;;;;;;;27.70;15.38;101198.53;5056332;28;20041;-80
2024/01/13 13:43:05;;;;;;;15.73;11.05;;;;;;;27.63;15.79;101193.88;5068572;28;20055;-79
2024/01/13 13:45:58;;;;;;;19.02;11.95;;;;;;;27.78;15.76;101194.47;5053579;28;20032;-82
2024/01/13 13:48:52;;;;;;;15.38;10.82;;;;;;;27.12;16.09;101187.28;5059195;28;20028;-79
2024/01/13 13:51:42;;;;;;;19.52;11.25;;;;;;;26.57;16.75;101181.06;5064859;28;20048;-79
2024/01/13 13:54:36;;;;;;;18.33;11.23;;;;;;;26.39;17.31;101178.44;5062364;28;20044;-79
2024/01/13 13:57:29;;;;;;;20.55;12.85;;;;;;;26.20;17.57;101176.19;5057608;28;20052;-79
2024/01/13 14:00:23;;;;;;;20.73;12.82;;;;;;;26.13;17.13;101165.09;5065720;28;20055;-78
2024/01/13 14:03:18;;;;;;;20.58;12.40;;;;;;;26.62;17.46;101169.44;5054163;28;20111;-76
2024/01/13 14:06:11;;;;;;;22.88;12.63;;;;;;;26.06;17.65;101170.75;5053429;28;20045;-79
2024/01/13 14:09:05;;;;;;;23.42;13.40;;;;;;;26.23;16.95;101159.47;5056546;28;20044;-79
2024/01/13 14:12:00;;;;;;;31.13;15.37;;;;;;;25.59;17.99;101163.88;5062310;28;20509;-77
2024/01/13 14:14:54;;;;;;;20.27;13.07;;;;;;;26.16;17.74;101159.47;5055662;28;20509;-80
2024/01/13 14:17:49;;;;;;;19.48;12.82;;;;;;;24.46;18.76;101157.44;5055405;28;20294;-80
2024/01/13 14:20:41;;;;;;;21.55;14.27;;;;;;;24.63;18.97;101164.97;5037711;28;20049;-79
2024/01/13 14:23:36;;;;;;;27.53;14.97;;;;;;;24.29;19.94;101156.25;5056130;28;20056;-79
2024/01/13 14:26:28;;;;;;;20.00;12.63;;;;;;;23.50;20.13;101158.53;5060403;28;20044;-79
2024/01/13 14:29:28;;;;;;;19.45;9.65;;;;;;;21.87;21.56;101149.88;5062238;28;20041;-80
2024/01/13 14:32:23;;;;;;;23.33;12.65;;;;;;;22.20;22.00;101157.31;5054772;28;20048;-79
2024/01/13 14:35:17;;;;;;;22.92;13.15;;;;;;;20.44;23.73;101149.25;5052955;28;20052;-78
2024/01/13 14:38:10;;;;;;;26.52;12.15;;;;;;;20.08;24.81;101144.28;5064251;28;20033;-78
2024/01/13 14:41:04;;;;;;;22.63;12.65;;;;;;;19.98;24.96;101145.72;5067355;28;20036;-80
2024/01/13 14:43:56;;;;;;;19.63;12.18;;;;;;;17.75;27.18;101143.53;5069496;28;20505;-79
2024/01/13 14:46:51;;;;;;;22.27;11.93;;;;;;;15.57;30.86;101136.38;5061676;28;20044;-79
2024/01/13 14:49:43;;;;;;;22.67;13.27;;;;;;;13.87;34.11;101135.19;5062423;28;20291;-78
2024/01/13 14:52:37;;;;;;;21.63;13.55;;;;;;;13.11;35.66;101126.81;5062881;28;21348;-79
2024/01/13 14:55:31;;;;;;;27.07;15.50;;;;;;;12.33;40.02;101131.38;5063455;28;20047;-78
2024/01/13 14:58:26;;;;;;;33.47;17.58;;;;;;;11.39;42.12;101122.69;5068554;28;20056;-79
2024/01/13 15:01:23;;;;;;;22.47;12.77;;;;;;;10.93;43.82;101129.25;5070003;28;20051;-77
2024/01/13 15:04:18;;;;;;;33.70;16.60;;;;;;;10.43;45.75;101124.91;5057281;28;20040;-78
2024/01/13 15:07:10;;;;;;;29.67;17.83;;;;;;;10.24;46.87;101125.84;5061046;28;20506;-78
2024/01/13 15:10:05;;;;;;;35.80;19.90;;;;;;;9.74;48.48;101121.38;5055294;28;20041;-80
2024/01/13 15:13:00;;;;;;;33.22;17.42;;;;;;;9.66;49.16;101116.59;5059695;28;20516;-77
2024/01/13 15:15:54;;;;;;;37.00;17.70;;;;;;;9.23;50.66;101116.81;5060051;28;20063;-77
2024/01/13 15:18:49;;;;;;;40.20;18.20;;;;;;;8.70;52.28;101112.72;5072124;28;20421;-78
2024/01/13 15:21:43;;;;;;;48.28;21.00;;;;;;;9.22;51.92;101112.47;5066878;28;20398;-77
2024/01/13 15:24:38;;;;;;;42.63;23.55;;;;;;;9.69;51.90;101116.84;5060841;28;20114;-77
2024/01/13 15:27:31;;;;;;;42.25;24.17;;;;;;;9.79;52.06;101107.69;5067279;28;20055;-78
2024/01/13 15:30:22;;;;;;;44.70;25.17;;;;;;;9.82;52.52;101104.38;5055416;28;20126;-77
2024/01/13 15:33:12;;;;;;;45.03;26.90;;;;;;;9.84;52.52;101107.59;5064088;28;20515;-76
2024/01/13 15:36:04;;;;;;;44.00;26.05;;;;;;;9.91;52.37;101107.19;5063019;28;20044;-77
2024/01/13 15:38:58;;;;;;;50.13;28.50;;;;;;;9.80;52.61;101101.16;5054827;28;20244;-76
2024/01/13 15:41:53;;;;;;;41.30;22.73;;;;;;;9.61;53.19;101103.13;5059951;28;20515;-77
2024/01/13 15:44:48;;;;;;;47.78;26.23;;;;;;;9.78;52.81;101097.94;5054840;28;20052;-77
2024/01/13 15:47:43;;;;;;;38.60;22.70;;;;;;;9.63;52.63;101093.59;5054331;28;20414;-78
2024/01/13 15:50:37;;;;;;;48.85;27.02;;;;;;;9.50;53.44;101088.91;5058397;28;20400;-77
2024/01/13 15:53:32;;;;;;;43.60;27.77;;;;;;;9.60;52.71;101096.88;5063640;28;20048;-77
2024/01/13 15:56:26;;;;;;;59.53;31.33;;;;;;;9.26;53.43;101113.50;5066647;28;20540;-77
2024/01/13 15:59:21;;;;;;;38.65;22.63;;;;;;;9.17;53.62;101099.00;5055658;28;20048;-76
2024/01/13 16:02:15;;;;;;;49.63;27.95;;;;;;;8.96;54.08;101092.28;5062510;28;20044;-77
2024/01/13 16:05:10;;;;;;;53.17;29.65;;;;;;;9.01;53.50;101097.63;5068393;28;20052;-76
2024/01/13 16:08:08;;;;;;;37.33;21.38;;;;;;;8.74;54.58;101102.91;5064630;28;20047;-77
2024/01/13 16:11:02;;;;;;;51.75;28.65;;;;;;;8.53;55.14;101111.31;5068118;28;20040;-76
2024/01/13 16:14:00;;;;;;;55.28;30.38;;;;;;;8.60;54.75;101108.25;5055927;28;20512;-77
2024/01/13 16:16:55;;;;;;;51.13;29.92;;;;;;;8.39;55.46;101105.00;5058727;28;20521;-77
2024/01/13 16:19:49;;;;;;;49.50;28.88;;;;;;;8.09;56.61;101097.22;5062455;28;20047;-76
2024/01/13 16:22:42;;;;;;;60.22;29.83;;;;;;;7.95;57.22;101091.72;5056981;28;20127;-77
2024/01/13 16:25:40;;;;;;;49.70;28.67;;;;;;;7.97;56.73;101102.25;5059578;28;20528;-75
2024/01/13 16:28:32;;;;;;;58.63;32.60;;;;;;;7.83;57.03;101106.72;5063611;28;20068;-77
2024/01/13 16:31:26;;;;;;;52.80;28.83;;;;;;;7.61;57.43;101105.34;5067659;28;20531;-76
2024/01/13 16:34:19;;;;;;;38.77;22.50;;;;;;;7.73;57.17;101108.44;5065413;28;20048;-76
2024/01/13 16:37:11;;;;;;;50.70;30.02;;;;;;;7.76;56.65;101106.28;5064475;28;20047;-76
2024/01/13 16:40:05;;;;;;;58.67;30.55;;;;;;;7.59;57.33;101112.13;5060419;28;20052;-77
2024/01/13 16:43:00;;;;;;;50.92;28.15;;;;;;;7.34;59.02;101110.47;5072125;28;20048;-78
2024/01/13 16:45:54;;;;;;;52.65;29.35;;;;;;;7.32;59.08;101101.81;5063009;28;20044;-78
2024/01/13 16:48:52;;;;;;;64.55;29.48;;;;;;;7.10;60.50;101104.16;5064840;28;20048;-76
2024/01/13 16:51:47;;;;;;;51.40;29.35;;;;;;;7.27;59.95;101099.16;5057254;28;20052;-78
2024/01/13 16:54:43;;;;;;;41.33;22.00;;;;;;;7.11;60.35;101098.47;5058357;28;20256;-78
2024/01/13 16:57:37;;;;;;;54.67;25.48;;;;;;;6.90;61.08;101102.44;5061280;28;20381;-78
2024/01/13 17:00:37;;;;;;;50.25;25.58;;;;;;;6.76;61.95;101101.41;5059679;28;20394;-79
2024/01/13 17:03:31;;;;;;;73.13;34.67;;;;;;;6.67;62.33;101108.50;5060056;28;20048;-78
2024/01/13 17:06:26;;;;;;;62.10;34.03;;;;;;;6.68;62.43;101108.22;5057935;28;20256;-79
2024/01/13 17:09:20;;;;;;;75.00;35.60;;;;;;;6.81;62.52;101123.81;5069618;28;20060;-76
2024/01/13 17:12:15;;;;;;;73.13;33.80;;;;;;;6.69;62.45;101115.25;5066355;28;20060;-80
2024/01/13 17:15:14;;;;;;;67.85;33.05;;;;;;;6.59;63.19;101119.91;5070826;28;20087;-77
2024/01/13 17:18:06;;;;;;;57.75;30.55;;;;;;;6.66;62.86;101113.09;5059116;28;20044;-77
2024/01/13 17:21:01;;;;;;;74.53;36.22;;;;;;;6.63;62.79;101112.84;5062900;28;20044;-79
2024/01/13 17:23:55;;;;;;;61.88;31.55;;;;;;;6.71;62.31;101113.06;5073930;28;20052;-78
2024/01/13 17:26:50;;;;;;;57.17;30.70;;;;;;;6.69;62.42;101107.16;5077661;28;20052;-77
2024/01/13 17:29:45;;;;;;;49.67;23.33;;;;;;;6.60;63.24;101116.13;5075923;28;20055;-80
2024/01/13 17:32:44;;;;;;;58.03;31.27;;;;;;;6.41;63.29;101124.03;5079248;28;20044;-76
2024/01/13 17:35:36;;;;;;;60.15;31.13;;;;;;;6.65;63.56;101118.81;5074311;28;20129;-80
2024/01/13 17:38:31;;;;;;;66.05;31.55;;;;;;;6.65;63.29;101114.22;5064126;28;20055;-76
2024/01/13 17:41:23;;;;;;;67.72;30.33;;;;;;;6.53;62.98;101104.81;5068160;28;20055;-78
2024/01/13 17:44:18;;;;;;;49.70;26.47;;;;;;;6.71;62.25;101107.66;5059217;28;20044;-78
2024/01/13 17:47:13;;;;;;;64.38;31.80;;;;;;;6.76;62.55;101120.34;5059380;28;20040;-77
2024/01/13 17:50:09;;;;;;;50.40;26.87;;;;;;;6.71;62.80;101123.06;5057757;28;20048;-78
2024/01/13 17:53:03;;;;;;;77.07;33.80;;;;;;;6.44;63.78;101118.09;5053085;28;20528;-78
2024/01/13 17:55:57;;;;;;;98.00;35.67;;;;;;;6.52;63.44;101114.81;5067069;28;20052;-76
2024/01/13 17:58:52;;;;;;;69.50;33.40;;;;;;;6.64;63.39;101117.19;5063439;28;20414;-77
2024/01/13 18:01:47;;;;;;;70.32;31.13;;;;;;;6.63;64.18;101116.38;5069178;28;20063;-76
2024/01/13 18:04:42;;;;;;;66.90;34.78;;;;;;;6.70;63.86;101116.06;5063525;28;20056;-77
2024/01/13 18:07:31;;;;;;;73.75;33.55;;;;;;;6.71;63.82;101113.06;5064359;28;20067;-78
2024/01/13 18:10:26;;;;;;;73.68;32.67;;;;;;;6.78;62.79;101113.56;5069988;28;20528;-77
2024/01/13 18:13:21;;;;;;;52.80;25.97;;;;;;;6.85;62.70;101110.56;5060584;28;20068;-76
2024/01/13 18:16:15;;;;;;;70.85;34.33;;;;;;;6.77;63.35;101114.66;5062373;28;20048;-77
2024/01/13 18:19:10;;;;;;;78.00;35.30;;;;;;;6.50;64.08;101100.78;5069344;28;20400;-77
2024/01/13 18:22:04;;;;;;;69.68;33.75;;;;;;;6.49;64.22;101093.75;5065453;28;20528;-76
2024/01/13 18:24:59;;;;;;;51.40;27.02;;;;;;;6.32;64.69;101090.59;5055226;28;20044;-77
2024/01/13 18:27:54;;;;;;;53.13;22.80;;;;;;;6.54;63.56;101087.53;5054899;28;20055;-78
2024/01/13 18:30:46;;;;;;;67.22;32.53;;;;;;;6.38;64.67;101092.19;5058482;28;20044;-78
2024/01/13 18:33:40;;;;;;;76.30;33.42;;;;;;;6.17;64.44;101096.06;5063822;28;20047;-76
2024/01/13 18:36:32;;;;;;;61.75;30.42;;;;;;;6.17;65.70;101101.47;5054147;28;20048;-78
2024/01/13 18:39:25;;;;;;;79.35;36.97;;;;;;;6.14;64.99;101091.22;5057526;28;20052;-79
2024/01/13 18:42:19;;;;;;;68.47;36.38;;;;;;;6.27;65.36;101094.13;5054778;28;20398;-76
2024/01/13 18:45:19;;;;;;;60.47;31.05;;;;;;;6.24;65.40;101083.91;5052045;28;20048;-76
2024/01/13 18:48:14;;;;;;;63.83;32.95;;;;;;;6.26;65.26;101078.19;5055773;28;20060;-77
2024/01/13 18:51:08;;;;;;;64.00;32.83;;;;;;;6.41;65.24;101084.34;5060336;28;20059;-79
2024/01/13 18:54:03;;;;;;;59.13;31.40;;;;;;;6.30;65.24;101090.06;5057303;28;20123;-79
2024/01/13 18:56:57;;;;;;;48.57;22.87;;;;;;;6.22;65.20;101079.84;5063376;28;20060;-80
2024/01/13 18:59:56;;;;;;;60.55;31.90;;;;;;;6.17;64.82;101083.38;5058849;28;20256;-78
2024/01/13 19:02:50;;;;;;;57.45;30.75;;;;;;;6.18;65.02;101092.28;5065226;28;20036;-77
2024/01/13 19:05:44;;;;;;;58.92;31.23;;;;;;;6.24;64.20;101092.00;5063105;28;20063;-78
2024/01/13 19:08:39;;;;;;;72.40;32.20;;;;;;;6.17;65.34;101085.28;5061250;28;20051;-77
2024/01/13 19:11:29;;;;;;;60.08;32.83;;;;;;;6.29;64.96;101067.66;5070033;28;20043;-76
2024/01/13 19:14:23;;;;;;;76.00;35.10;;;;;;;6.24;65.14;101069.59;5067993;28;20051;-76
2024/01/13 19:17:17;;;;;;;66.90;32.78;;;;;;;5.90;66.06;101064.84;5075541;28;20051;-76
2024/01/13 19:20:12;;;;;;;72.95;37.08;;;;;;;6.25;65.73;101057.69;5068273;28;20115;-78
2024/01/13 19:23:06;;;;;;;68.15;34.88;;;;;;;6.37;65.05;101060.88;5061420;28;20417;-78
2024/01/13 19:25:58;;;;;;;63.70;30.17;;;;;;;6.26;64.49;101051.19;5060576;28;20063;-78
2024/01/13 19:28:50;;;;;;;67.25;29.80;;;;;;;6.16;64.93;101059.34;5051596;28;20425;-78
2024/01/13 19:31:45;;;;;;;56.75;31.95;;;;;;;6.21;64.86;101062.03;5065486;28;20088;-78
2024/01/13 19:34:39;;;;;;;58.78;31.52;;;;;;;6.32;63.74;101055.50;5053767;28;20422;-77
2024/01/13 19:37:34;;;;;;;87.05;39.92;;;;;;;6.17;64.92;101063.66;5056572;28;20047;-77
2024/01/13 19:40:28;;;;;;;88.22;42.63;;;;;;;6.14;65.06;101061.53;5063146;28;20056;-76
2024/01/13 19:43:20;;;;;;;54.30;29.13;;;;;;;6.22;64.89;101055.53;5072146;28;20165;-78
2024/01/13 19:46:15;;;;;;;60.67;31.88;;;;;;;6.05;65.27;101055.88;5075600;28;20515;-76
2024/01/13 19:49:12;;;;;;;68.88;33.15;;;;;;;5.88;65.66;101050.03;5077435;28;20067;-77
2024/01/13 19:52:02;;;;;;;59.80;31.10;;;;;;;6.25;65.75;101053.09;5057639;28;20044;-78
2024/01/13 19:54:56;;;;;;;80.63;40.55;;;;;;;5.98;65.60;101040.00;5062723;28;20040;-77
2024/01/13 19:57:48;;;;;;;77.30;39.13;;;;;;;6.05;65.66;101057.78;5056068;28;20035;-79
2024/01/13 20:00:40;;;;;;;59.47;33.60;;;;;;;5.94;64.10;101055.13;5056426;28;20044;-78
2024/01/13 20:03:32;;;;;;;56.30;28.67;;;;;;;6.01;65.54;101054.81;5054186;28;20044;-76
2024/01/13 20:06:22;;;;;;;49.83;28.30;;;;;;;6.01;63.57;101041.31;5051011;28;20068;-78
2024/01/13 20:09:16;;;;;;;51.00;27.52;;;;;;;6.06;64.09;101035.91;5054163;28;20052;-76
2024/01/13 20:12:08;;;;;;;59.15;29.17;;;;;;;5.85;65.17;101029.75;5052174;28;20047;-76
2024/01/13 20:15:03;;;;;;;50.20;27.33;;;;;;;6.01;64.87;101036.75;5053175;28;20406;-77
2024/01/13 20:17:57;;;;;;;44.63;26.98;;;;;;;5.88;64.35;101026.56;5059077;28;20505;-79
2024/01/13 20:20:50;;;;;;;55.50;27.07;;;;;;;5.85;65.55;101024.34;5051032;28;20056;-79
2024/01/13 20:23:40;;;;;;;56.92;27.30;;;;;;;6.00;65.15;101035.13;5054259;28;20047;-76
2024/01/13 20:26:35;;;;;;;58.05;29.27;;;;;;;6.07;64.97;101036.72;5053057;28;20048;-77
2024/01/13 20:29:29;;;;;;;54.28;29.42;;;;;;;5.93;65.18;101029.22;5050695;28;20048;-78
2024/01/13 20:32:24;;;;;;;39.95;21.98;;;;;;;5.81;64.57;101015.19;5054195;28;20044;-79
2024/01/13 20:35:19;;;;;;;38.28;20.60;;;;;;;5.84;64.61;101017.34;5067214;28;20051;-78
2024/01/13 20:38:11;;;;;;;46.70;27.02;;;;;;;5.95;64.11;101010.03;5075599;28;20047;-77
2024/01/13 20:41:03;;;;;;;49.25;28.45;;;;;;;5.97;64.31;101000.59;5056341;28;20043;-81
2024/01/13 20:43:57;;;;;;;55.67;30.35;;;;;;;6.00;64.04;101007.31;5050384;28;20052;-77
2024/01/13 20:46:50;;;;;;;47.27;25.77;;;;;;;5.89;64.46;101005.78;5062950;28;20048;-78
2024/01/13 20:49:44;;;;;;;49.63;27.55;;;;;;;5.98;63.86;101002.22;5052489;28;20052;-77
2024/01/13 20:52:39;;;;;;;51.88;28.30;;;;;;;6.11;63.73;101008.06;5055507;28;20048;-76
2024/01/13 20:55:33;;;;;;;55.20;31.50;;;;;;;6.13;63.53;101011.31;5051634;28;20056;-77
2024/01/13 20:58:28;;;;;;;44.13;24.42;;;;;;;6.08;63.80;101001.34;5051020;28;20044;-78
2024/01/13 21:01:22;;;;;;;53.63;27.27;;;;;;;5.98;64.13;101012.19;5054705;28;20044;-76
2024/01/13 21:04:17;;;;;;;39.67;21.65;;;;;;;6.01;63.74;101008.94;5067727;28;20051;-78
2024/01/13 21:07:12;;;;;;;54.03;28.50;;;;;;;5.98;63.84;101012.19;5071833;28;20071;-78
2024/01/13 21:10:07;;;;;;;55.75;29.27;;;;;;;5.83;64.58;101001.44;5073850;28;20684;-77
2024/01/13 21:12:59;;;;;;;55.90;29.08;;;;;;;5.72;64.45;100997.97;5071441;28;20051;-77
2024/01/13 21:15:54;;;;;;;43.88;23.13;;;;;;;5.95;63.84;101008.16;5074566;28;20516;-77
2024/01/13 21:18:43;;;;;;;54.03;26.45;;;;;;;5.90;62.95;100991.97;5076278;28;20032;-77
2024/01/13 21:21:37;;;;;;;48.03;26.90;;;;;;;6.00;63.56;100997.31;5064043;28;20052;-77
2024/01/13 21:24:24;;;;;;;51.88;27.15;;;;;;;5.87;64.07;100997.94;5073845;28;20063;-78
2024/01/13 21:27:18;;;;;;;61.22;31.25;;;;;;;5.81;64.21;100996.31;5075554;28;20054;-79